createdAt,value
2018-08-22T11:32:55.521Z,28.15
2018-08-22T11:35:23.691Z,28.32
2018-08-22T11:37:51.268Z,28.45
2018-08-22T11:40:18.864Z,28.37
2018-08-22T11:42:46.463Z,28.36
2018-08-22T11:45:14.015Z,28.07
2018-08-22T11:47:41.554Z,28.18
2018-08-22T11:50:09.162Z,28.33
2018-08-22T11:52:36.715Z,28.37
2018-08-22T11:55:04.383Z,28.31
2018-08-22T11:57:31.936Z,28.33
2018-08-22T11:59:59.494Z,28.39
2018-08-22T12:02:27.035Z,28.49
2018-08-22T12:04:54.628Z,28.71
2018-08-22T12:07:22.207Z,28.55
2018-08-22T12:09:49.756Z,28.65
2018-08-22T12:12:17.324Z,28.68
2018-08-22T12:14:44.985Z,28.84
2018-08-22T12:17:12.606Z,28.91
2018-08-22T12:19:40.126Z,29.21
2018-08-22T12:22:07.754Z,29.32
2018-08-22T12:24:35.293Z,28.72
2018-08-22T12:27:02.799Z,28.91
2018-08-22T12:29:30.373Z,29.08
2018-08-22T12:31:57.933Z,28.92
2018-08-22T12:34:25.505Z,29.16
2018-08-22T12:36:53.008Z,29.22
2018-08-22T12:39:20.591Z,29.19
2018-08-22T12:41:48.123Z,29.33
2018-08-22T12:44:15.650Z,29.33
2018-08-22T12:46:43.207Z,29.31
2018-08-22T12:49:10.738Z,29.19
2018-08-22T12:51:38.298Z,29.03
2018-08-22T12:54:05.849Z,29.26
2018-08-22T12:56:33.404Z,29.21
2018-08-22T12:59:00.973Z,29.20
2018-08-22T13:01:28.516Z,29.30
2018-08-22T13:03:56.099Z,29.56
2018-08-22T13:06:23.662Z,29.44
2018-08-22T13:08:51.186Z,28.94
2018-08-22T13:11:18.761Z,29.05
2018-08-22T13:13:46.331Z,29.23
2018-08-22T13:16:13.902Z,29.11
2018-08-22T13:18:41.429Z,28.86
2018-08-22T13:21:08.987Z,29.28
2018-08-22T13:23:36.653Z,29.28
2018-08-22T13:26:04.300Z,29.19
2018-08-22T13:28:31.834Z,28.92
2018-08-22T13:30:59.400Z,29.07
2018-08-22T13:33:27.142Z,29.21
2018-08-22T13:35:54.681Z,29.29
2018-08-22T13:38:22.390Z,29.50
2018-08-22T13:40:49.912Z,29.25
2018-08-22T13:43:17.476Z,29.49
2018-08-22T13:45:45.073Z,29.40
2018-08-22T13:48:12.692Z,29.44
2018-08-22T13:50:40.210Z,29.68
2018-08-22T13:53:07.801Z,29.65
2018-08-22T13:55:35.500Z,29.51
2018-08-22T13:58:03.113Z,29.45
2018-08-22T14:00:30.744Z,29.77
2018-08-22T14:02:58.287Z,29.54
2018-08-22T14:05:26.002Z,29.63
2018-08-22T14:07:53.568Z,29.65
2018-08-22T14:10:21.157Z,29.37
2018-08-22T14:12:48.672Z,29.78
2018-08-22T14:15:16.376Z,29.82
2018-08-22T14:17:43.924Z,29.60
2018-08-22T14:20:11.492Z,29.83
2018-08-22T14:22:39.045Z,29.76
2018-08-22T14:25:06.645Z,29.89
2018-08-22T14:27:34.330Z,29.92
2018-08-22T14:30:01.971Z,29.80
2018-08-22T14:32:29.555Z,29.98
2018-08-22T14:34:57.143Z,29.95
2018-08-22T14:37:24.686Z,30.06
2018-08-22T14:39:52.259Z,29.94
2018-08-22T14:42:19.843Z,29.83
2018-08-22T14:44:47.384Z,30.01
2018-08-22T14:47:15.183Z,30.06
2018-08-22T14:49:42.881Z,29.92
2018-08-22T14:52:10.449Z,30.15
2018-08-22T14:54:38.052Z,30.08
2018-08-22T14:57:05.579Z,30.14
2018-08-22T14:59:33.367Z,30.25
2018-08-22T15:02:01.038Z,30.17
2018-08-22T15:04:28.968Z,29.71
2018-08-22T15:06:56.673Z,30.00
2018-08-22T15:09:24.447Z,29.96
2018-08-22T15:11:52.170Z,30.18
2018-08-22T15:14:19.726Z,30.34
2018-08-22T15:16:47.440Z,30.37
2018-08-22T15:19:15.038Z,30.25
2018-08-22T15:21:42.707Z,30.46
2018-08-22T15:24:10.331Z,30.52
2018-08-22T15:26:38.036Z,30.29
2018-08-22T15:29:05.665Z,30.37
2018-08-22T15:31:33.223Z,30.66
2018-08-22T15:34:00.932Z,30.59
2018-08-22T15:36:28.522Z,30.55
2018-08-22T15:38:56.035Z,30.47
2018-08-22T15:41:23.622Z,30.52
2018-08-22T15:43:51.204Z,30.15
2018-08-22T15:46:18.724Z,30.51
2018-08-22T15:48:46.263Z,30.34
2018-08-22T15:51:13.848Z,30.42
2018-08-22T15:53:41.389Z,30.33
2018-08-22T15:56:08.970Z,30.55
2018-08-22T15:58:36.697Z,30.53
2018-08-22T16:01:04.368Z,30.50
2018-08-22T16:03:31.889Z,30.64
2018-08-22T16:06:00.421Z,30.44
2018-08-22T16:08:28.002Z,30.54
2018-08-22T16:10:55.546Z,30.74
2018-08-22T16:13:23.260Z,30.42
2018-08-22T16:15:50.837Z,30.25
2018-08-22T16:18:18.441Z,30.36
2018-08-22T16:20:46.247Z,30.63
2018-08-22T16:23:13.824Z,30.82
2018-08-22T16:25:41.352Z,30.63
2018-08-22T16:28:08.916Z,30.46
2018-08-22T16:30:36.522Z,30.87
2018-08-22T16:33:04.226Z,30.90
2018-08-22T16:35:31.761Z,30.47
2018-08-22T16:37:59.295Z,30.72
2018-08-22T16:40:26.855Z,30.68
2018-08-22T16:42:54.368Z,30.93
2018-08-22T16:45:22.110Z,30.90
2018-08-22T16:47:49.635Z,31.05
2018-08-22T16:50:17.198Z,31.13
2018-08-22T16:52:44.741Z,30.91
2018-08-22T16:55:12.409Z,30.76
2018-08-22T16:57:39.961Z,30.64
2018-08-22T17:00:07.525Z,30.41
2018-08-22T17:02:35.117Z,30.40
2018-08-22T17:05:02.653Z,30.56
2018-08-22T17:07:30.203Z,30.67
2018-08-22T17:09:57.762Z,30.68
2018-08-22T17:12:25.359Z,30.53
2018-08-22T17:14:52.893Z,30.49
2018-08-22T17:17:20.584Z,30.57
2018-08-22T17:19:48.111Z,30.70
2018-08-22T17:22:15.716Z,30.33
2018-08-22T17:24:43.244Z,30.04
2018-08-22T17:27:10.820Z,30.34
2018-08-22T17:29:38.413Z,30.27
2018-08-22T17:32:06.011Z,30.14
2018-08-22T17:34:33.527Z,29.92
2018-08-22T17:37:01.121Z,29.90
2018-08-22T17:39:28.687Z,29.55
2018-08-22T17:41:56.228Z,29.12
2018-08-22T17:44:23.808Z,28.68
2018-08-22T17:49:24.725Z,29.16
2018-08-22T17:51:53.201Z,28.58
2018-08-22T17:54:20.758Z,29.02
2018-08-22T17:56:48.350Z,28.90
2018-08-22T17:59:15.925Z,28.92
2018-08-22T18:01:43.514Z,28.49
2018-08-22T18:04:11.632Z,28.34
2018-08-22T18:06:39.437Z,28.52
2018-08-22T18:09:07.570Z,28.52
2018-08-22T18:11:35.429Z,28.54
2018-08-22T18:14:04.209Z,28.74
2018-08-22T18:16:32.475Z,28.69
2018-08-22T18:19:04.458Z,28.19
2018-08-22T18:21:32.666Z,28.32
2018-08-22T18:24:01.391Z,28.41
2018-08-22T18:26:28.983Z,28.23
2018-08-22T18:28:56.807Z,28.28
2018-08-22T18:31:24.434Z,28.15
2018-08-22T18:34:04.228Z,28.12
2018-08-22T18:36:31.914Z,28.29
2018-08-22T18:39:00.331Z,28.37
2018-08-22T18:41:27.869Z,27.97
2018-08-22T18:43:55.383Z,27.50
2018-08-22T18:46:22.976Z,27.28
2018-08-22T18:48:50.514Z,27.19
2018-08-22T18:51:19.148Z,27.06
2018-08-22T18:53:47.792Z,26.80
2018-08-22T18:56:19.954Z,26.88
2018-08-22T18:58:49.838Z,26.70
2018-08-22T19:01:21.550Z,26.66
2018-08-22T19:03:50.999Z,26.75
2018-08-22T19:06:19.056Z,27.02
2018-08-22T19:08:46.589Z,26.89
2018-08-22T19:11:14.130Z,26.62
2018-08-22T19:13:41.914Z,26.85
2018-08-22T19:16:09.489Z,26.62
2018-08-22T19:18:37.099Z,26.69
2018-08-22T19:21:04.638Z,26.83
2018-08-22T19:23:32.610Z,27.12
2018-08-22T19:26:00.155Z,27.10
2018-08-22T19:28:27.757Z,27.01
2018-08-22T19:30:55.427Z,26.88
2018-08-22T19:33:29.376Z,26.65
2018-08-22T19:35:58.695Z,26.39
2018-08-22T19:38:26.924Z,26.64
2018-08-22T19:40:54.571Z,26.36
2018-08-22T19:43:22.126Z,26.48
2018-08-22T19:45:49.716Z,26.23
2018-08-22T19:48:17.299Z,26.28
2018-08-22T19:50:44.842Z,26.40
2018-08-22T19:53:12.746Z,26.21
2018-08-22T19:55:43.340Z,25.87
2018-08-22T19:58:14.447Z,26.00
2018-08-22T20:00:42.256Z,25.93
2018-08-22T20:03:10.114Z,25.79
2018-08-22T20:05:37.643Z,25.69
2018-08-22T20:08:05.522Z,25.70
2018-08-22T20:10:33.067Z,25.66
2018-08-22T20:13:00.643Z,25.44
2018-08-22T20:15:31.890Z,25.49
2018-08-22T20:18:01.043Z,25.68
2018-08-22T20:20:32.037Z,25.67
2018-08-22T20:23:01.273Z,25.69
2018-08-22T20:25:35.231Z,25.69
2018-08-22T20:28:03.067Z,25.28
2018-08-22T20:30:30.818Z,25.05
2018-08-22T20:32:59.237Z,25.34
2018-08-22T20:35:28.796Z,25.29
2018-08-22T20:37:56.475Z,25.25
2018-08-22T20:40:24.299Z,25.39
2018-08-22T20:42:52.636Z,25.55
2018-08-22T20:45:20.480Z,25.15
2018-08-22T20:47:48.100Z,24.89
2018-08-22T20:50:15.678Z,24.97
2018-08-22T20:52:43.954Z,24.90
2018-08-22T20:55:11.648Z,24.74
2018-08-22T20:57:39.394Z,24.64
2018-08-22T21:00:08.798Z,24.47
2018-08-22T21:02:38.368Z,24.60
2018-08-22T21:05:07.037Z,24.95
2018-08-22T21:07:36.651Z,24.40
2018-08-22T21:10:04.682Z,24.44
2018-08-22T21:12:32.232Z,24.33
2018-08-22T21:15:00.140Z,24.44
2018-08-22T21:17:28.548Z,24.39
2018-08-22T21:19:56.113Z,24.12
2018-08-22T21:22:26.653Z,24.20
2018-08-22T21:24:57.890Z,24.39
2018-08-22T21:27:28.708Z,24.03
2018-08-22T21:29:56.240Z,24.18
2018-08-22T21:32:23.817Z,24.18
2018-08-22T21:34:59.624Z,24.03
2018-08-22T21:37:33.102Z,24.29
2018-08-22T21:40:02.212Z,24.34
2018-08-22T21:42:30.203Z,24.37
2018-08-22T21:44:58.242Z,24.28
2018-08-22T21:47:25.835Z,24.19
2018-08-22T21:49:53.500Z,24.01
2018-08-22T21:52:21.265Z,23.70
2018-08-22T21:54:49.008Z,23.70
2018-08-22T21:57:16.585Z,23.71
2018-08-22T21:59:44.314Z,23.59
2018-08-22T22:02:12.791Z,23.95
2018-08-22T22:04:41.083Z,24.19
2018-08-22T22:07:09.074Z,23.84
2018-08-22T22:09:37.139Z,23.91
2018-08-22T22:12:05.078Z,23.82
2018-08-22T22:14:33.147Z,23.62
2018-08-22T22:17:01.004Z,23.57
2018-08-22T22:19:28.932Z,23.48
2018-08-22T22:21:57.066Z,23.89
2018-08-22T22:24:24.655Z,23.68
2018-08-22T22:26:52.240Z,23.80
2018-08-22T22:29:19.921Z,23.80
2018-08-22T22:31:47.671Z,23.65
2018-08-22T22:34:15.467Z,23.77
2018-08-22T22:36:43.207Z,23.51
2018-08-22T22:39:10.799Z,23.49
2018-08-22T22:41:38.344Z,23.51
2018-08-22T22:44:05.905Z,23.58
2018-08-22T22:46:33.507Z,23.39
2018-08-22T22:49:01.061Z,23.61
2018-08-22T22:51:28.616Z,23.51
